createdAt,value
2018-10-12T15:04:47.355Z,29.80
2018-10-12T15:07:15.477Z,30.30
2018-10-12T15:09:43.601Z,30.30
2018-10-12T15:12:11.799Z,30.30
2018-10-12T15:14:51.175Z,31.30
2018-10-12T15:17:19.806Z,30.70
2018-10-12T15:19:47.976Z,30.80
2018-10-12T15:22:16.114Z,31.40
2018-10-12T15:24:44.302Z,31.20
2018-10-12T15:27:12.471Z,31.30
2018-10-12T15:29:40.653Z,31.20
2018-10-12T15:32:08.856Z,31.40
2018-10-12T15:34:37.078Z,31.20
2018-10-12T15:37:05.326Z,31.30
2018-10-12T15:39:33.500Z,31.70
2018-10-12T15:42:03.208Z,31.80
2018-10-12T15:44:31.372Z,32.00
2018-10-12T15:46:59.787Z,32.00
2018-10-12T15:49:28.276Z,32.10
2018-10-12T15:51:56.479Z,32.60
2018-10-12T15:54:24.617Z,32.90
2018-10-12T15:56:52.779Z,33.40
2018-10-12T15:59:20.989Z,34.00
2018-10-12T16:01:49.245Z,34.20
2018-10-12T16:04:17.409Z,35.10
2018-10-12T16:06:45.571Z,35.40
2018-10-12T16:09:13.737Z,35.20
2018-10-12T16:11:41.872Z,35.60
2018-10-12T16:14:10.048Z,35.80
2018-10-12T16:16:38.273Z,36.30
2018-10-12T16:19:06.461Z,36.70
2018-10-12T16:21:34.697Z,37.40
2018-10-12T16:24:08.475Z,37.20
2018-10-12T16:26:36.686Z,37.50
2018-10-12T16:29:05.098Z,37.60
2018-10-12T16:31:33.193Z,38.00
2018-10-12T16:34:01.419Z,38.20
2018-10-12T16:36:29.654Z,38.60
2018-10-12T16:38:57.923Z,39.10
2018-10-12T16:41:26.109Z,38.80
2018-10-12T16:43:54.344Z,39.00
2018-10-12T16:46:23.125Z,39.30
2018-10-12T16:48:51.344Z,39.30
2018-10-12T16:51:19.532Z,39.60
2018-10-12T16:53:47.670Z,39.70
2018-10-12T16:56:15.882Z,40.00
2018-10-12T16:58:44.433Z,39.90
2018-10-12T17:01:12.598Z,40.40
2018-10-12T17:03:40.759Z,40.60
2018-10-12T17:06:09.013Z,41.30
2018-10-12T17:08:37.152Z,41.80
2018-10-12T17:11:05.317Z,42.20
2018-10-12T17:13:33.523Z,42.80
2018-10-12T17:16:01.856Z,43.30
2018-10-12T17:18:30.054Z,43.30
2018-10-12T17:20:58.222Z,43.70
2018-10-12T17:23:26.422Z,44.20
2018-10-12T17:25:54.586Z,44.60
2018-10-12T17:28:22.824Z,45.80
2018-10-12T17:30:51.069Z,45.70
2018-10-12T17:33:19.217Z,46.20
2018-10-12T17:35:47.401Z,46.70
2018-10-12T17:38:15.545Z,47.10
2018-10-12T17:40:43.706Z,47.30
2018-10-12T17:43:11.927Z,48.20
2018-10-12T17:45:40.083Z,48.40
2018-10-12T17:48:08.246Z,49.00
2018-10-12T17:50:36.612Z,49.50
2018-10-12T17:53:06.029Z,50.10
2018-10-12T17:55:34.193Z,50.80
2018-10-12T17:58:02.436Z,51.60
2018-10-12T18:00:30.751Z,51.60
2018-10-12T18:02:58.814Z,52.30
2018-10-12T18:05:27.015Z,52.40
2018-10-12T18:07:55.228Z,52.50
2018-10-12T18:10:23.389Z,51.80
2018-10-12T18:12:51.533Z,52.10
2018-10-12T18:15:19.711Z,52.30
2018-10-12T18:17:47.833Z,52.50
2018-10-12T18:20:16.064Z,53.90
2018-10-12T18:22:44.230Z,54.40
2018-10-12T18:25:12.398Z,54.30
2018-10-12T18:27:40.562Z,55.60
2018-10-12T18:30:08.861Z,56.00
2018-10-12T18:32:37.061Z,57.70
2018-10-12T18:35:05.206Z,58.70
2018-10-12T18:37:33.479Z,58.70
2018-10-12T18:40:01.630Z,59.00
2018-10-12T18:42:29.983Z,59.60
2018-10-12T18:44:58.120Z,59.70
2018-10-12T18:47:26.280Z,60.40
2018-10-12T18:49:54.493Z,60.80
2018-10-12T18:52:22.670Z,62.20
2018-10-12T18:54:50.794Z,62.90
2018-10-12T18:57:18.969Z,63.50
2018-10-12T18:59:47.153Z,64.40
2018-10-12T19:02:15.521Z,64.60
2018-10-12T19:04:43.874Z,66.60
2018-10-12T19:07:11.898Z,67.90
2018-10-12T19:09:40.046Z,69.00
2018-10-12T19:12:08.429Z,70.00
2018-10-12T19:14:36.597Z,70.90
2018-10-12T19:17:05.399Z,71.50
2018-10-12T19:19:33.801Z,71.70
2018-10-12T19:22:01.875Z,72.60
2018-10-12T19:24:30.035Z,72.90
2018-10-12T19:26:58.200Z,72.80
2018-10-12T19:29:26.329Z,73.40
2018-10-12T19:31:54.660Z,73.50
2018-10-12T19:34:22.748Z,73.30
2018-10-12T19:36:51.152Z,72.90
2018-10-12T19:39:19.290Z,72.70
2018-10-12T19:41:47.514Z,72.90
2018-10-12T19:44:15.673Z,73.80
2018-10-12T19:46:43.830Z,74.70
2018-10-12T19:49:12.005Z,75.30
2018-10-12T19:51:40.189Z,75.90
2018-10-12T19:54:08.405Z,75.90
2018-10-12T19:56:36.628Z,76.40
2018-10-12T19:59:04.839Z,76.90
2018-10-12T20:01:33.009Z,77.40
2018-10-12T20:04:01.118Z,78.00
2018-10-12T20:06:29.451Z,78.20
2018-10-12T20:08:57.656Z,77.90
2018-10-12T20:11:25.860Z,78.00
2018-10-12T20:13:54.040Z,78.20
2018-10-12T20:16:22.184Z,77.80
2018-10-12T20:18:50.388Z,78.20
2018-10-12T20:21:18.636Z,78.10
2018-10-12T20:23:46.820Z,78.40
2018-10-12T20:26:15.297Z,78.40
2018-10-12T20:28:43.700Z,78.90
2018-10-12T20:31:11.941Z,79.90
2018-10-12T20:33:40.089Z,80.80
2018-10-12T20:36:08.239Z,80.60
2018-10-12T20:38:36.735Z,80.80
2018-10-12T20:41:05.185Z,80.80
2018-10-12T20:43:33.309Z,80.20
2018-10-12T20:46:01.508Z,79.50
2018-10-12T20:48:29.673Z,79.80
2018-10-12T20:50:57.801Z,80.90
2018-10-12T20:53:26.034Z,80.90
2018-10-12T20:55:54.255Z,80.90
2018-10-12T20:58:22.445Z,81.60
2018-10-12T21:00:50.610Z,82.30
2018-10-12T21:03:18.745Z,83.10
2018-10-12T21:05:47.034Z,83.40
2018-10-12T21:08:15.202Z,83.90
2018-10-12T21:10:43.366Z,84.60
2018-10-12T21:13:11.553Z,86.20
2018-10-12T21:15:39.708Z,86.60
2018-10-12T21:18:07.859Z,87.20
2018-10-12T21:20:36.050Z,87.70
2018-10-12T21:23:04.203Z,88.10
2018-10-12T21:25:32.373Z,88.60
2018-10-12T21:28:00.574Z,88.80
2018-10-12T21:30:28.713Z,89.50
2018-10-12T21:32:57.044Z,89.10
2018-10-12T21:35:25.501Z,89.50
2018-10-12T21:37:53.628Z,90.00
2018-10-12T21:40:21.893Z,90.00
2018-10-12T21:42:50.869Z,90.10
2018-10-12T21:45:19.009Z,89.90
2018-10-12T21:47:47.315Z,89.80
2018-10-12T21:50:15.454Z,90.00
2018-10-12T21:52:43.602Z,89.60
2018-10-12T21:55:11.770Z,89.60
2018-10-12T21:57:39.940Z,89.90
2018-10-12T22:00:08.181Z,90.10
2018-10-12T22:02:36.294Z,90.40
2018-10-12T22:05:04.444Z,90.40
2018-10-12T22:07:32.653Z,90.40
2018-10-12T22:10:00.898Z,90.30
2018-10-12T22:12:29.141Z,88.70
2018-10-12T22:14:57.306Z,88.80
2018-10-12T22:17:25.458Z,88.40
2018-10-12T22:19:54.212Z,88.30
2018-10-12T22:22:22.387Z,87.90
2018-10-12T22:24:50.926Z,87.80
2018-10-12T22:27:19.153Z,87.70
2018-10-12T22:29:47.304Z,87.50
2018-10-12T22:32:15.501Z,86.80
2018-10-12T22:34:43.711Z,85.70
2018-10-12T22:37:11.887Z,85.30
2018-10-12T22:39:42.334Z,86.10
2018-10-12T22:42:11.273Z,86.70
2018-10-12T22:44:39.646Z,87.10
2018-10-12T22:47:08.353Z,87.10
2018-10-12T22:49:36.499Z,86.60
2018-10-12T22:52:04.820Z,86.20
2018-10-12T22:54:32.964Z,86.60
2018-10-12T22:57:01.108Z,87.10
2018-10-12T22:59:29.329Z,88.20
2018-10-12T23:01:57.744Z,87.60
2018-10-12T23:04:25.928Z,87.40
2018-10-12T23:06:54.180Z,87.30
2018-10-12T23:09:22.409Z,87.00
2018-10-12T23:11:50.545Z,86.80
2018-10-12T23:14:18.762Z,86.90
2018-10-12T23:16:46.900Z,87.30
2018-10-12T23:19:15.053Z,86.80
2018-10-12T23:21:43.262Z,87.10
2018-10-12T23:24:11.413Z,86.80
2018-10-12T23:26:39.558Z,86.90
2018-10-12T23:29:07.731Z,86.70
2018-10-12T23:31:35.880Z,86.70
2018-10-12T23:34:09.140Z,86.30
2018-10-12T23:36:37.389Z,87.50
2018-10-12T23:39:08.762Z,87.90
2018-10-12T23:41:36.991Z,87.70
2018-10-12T23:44:05.277Z,88.60
2018-10-12T23:46:33.404Z,89.70
2018-10-12T23:49:01.564Z,89.80
2018-10-12T23:51:30.036Z,90.20
2018-10-12T23:53:58.281Z,90.40
2018-10-12T23:56:26.446Z,90.30
2018-10-12T23:58:54.613Z,90.70
